createdAt,value
2023-03-07T00:00:03.532Z,82.29
2023-03-07T00:02:52.965Z,82.50
2023-03-07T00:05:20.676Z,82.53
2023-03-07T00:07:48.321Z,82.42
2023-03-07T00:10:16.259Z,82.36
2023-03-07T00:12:44.117Z,82.28
2023-03-07T00:15:12.015Z,82.40
2023-03-07T00:17:40.129Z,82.29
2023-03-07T00:20:08.973Z,82.13
2023-03-07T00:22:37.559Z,82.03
2023-03-07T00:25:05.656Z,81.96
2023-03-07T00:27:34.164Z,81.92
2023-03-07T00:30:04.252Z,81.85
2023-03-07T00:32:32.328Z,81.81
2023-03-07T00:35:01.157Z,81.78
2023-03-07T00:37:30.844Z,81.76
2023-03-07T00:39:58.805Z,81.70
2023-03-07T00:42:26.613Z,81.63
2023-03-07T00:44:54.419Z,81.63
2023-03-07T00:47:22.222Z,81.62
2023-03-07T00:49:50.155Z,81.62
2023-03-07T00:52:17.921Z,81.64
2023-03-07T00:54:45.841Z,81.67
2023-03-07T00:57:13.591Z,81.69
2023-03-07T00:59:41.548Z,81.66
2023-03-07T01:02:09.381Z,81.69
2023-03-07T01:04:37.081Z,81.80
2023-03-07T01:07:04.875Z,81.76
2023-03-07T01:09:32.995Z,81.81
2023-03-07T01:12:00.839Z,81.92
2023-03-07T01:14:28.660Z,82.01
2023-03-07T01:16:56.557Z,82.17
2023-03-07T01:19:24.642Z,82.27
2023-03-07T01:21:54.171Z,82.29
2023-03-07T01:24:22.008Z,82.27
2023-03-07T01:26:49.748Z,82.25
2023-03-07T01:29:17.748Z,82.23
2023-03-07T01:31:45.518Z,82.15
2023-03-07T01:34:13.402Z,82.00
2023-03-07T01:36:41.986Z,81.82
2023-03-07T01:39:15.584Z,81.68
2023-03-07T01:41:47.633Z,81.80
2023-03-07T01:44:21.933Z,82.55
2023-03-07T01:46:57.154Z,80.94
2023-03-07T01:49:42.849Z,80.04
2023-03-07T01:52:28.246Z,79.52
2023-03-07T01:55:26.628Z,79.14
2023-03-07T01:58:04.119Z,78.87
2023-03-07T02:00:31.989Z,78.87
2023-03-07T02:03:19.837Z,79.06
2023-03-07T02:05:52.998Z,79.27
2023-03-07T02:08:24.294Z,79.50
2023-03-07T02:10:52.656Z,79.84
2023-03-07T02:13:20.434Z,80.17
2023-03-07T02:15:50.314Z,80.45
2023-03-07T02:18:25.273Z,80.65
2023-03-07T02:20:59.142Z,80.75
2023-03-07T02:23:38.472Z,80.71
2023-03-07T02:26:30.919Z,80.76
2023-03-07T02:29:00.406Z,80.89
2023-03-07T02:31:28.347Z,81.11
2023-03-07T02:33:56.113Z,81.37
2023-03-07T02:36:29.050Z,81.53
2023-03-07T02:39:09.331Z,81.60
2023-03-07T02:41:39.274Z,81.70
2023-03-07T02:44:13.157Z,81.73
2023-03-07T02:46:41.250Z,81.83
2023-03-07T02:49:09.016Z,81.98
2023-03-07T02:51:36.787Z,82.12
2023-03-07T02:54:04.842Z,82.21
2023-03-07T02:56:32.852Z,82.25
2023-03-07T02:59:00.541Z,82.27
2023-03-07T03:01:28.406Z,82.38
2023-03-07T03:03:56.207Z,82.51
2023-03-07T03:06:24.287Z,82.63
2023-03-07T03:08:52.278Z,82.73
2023-03-07T03:11:20.038Z,82.82
2023-03-07T03:13:48.011Z,82.86
2023-03-07T03:16:16.088Z,82.84
2023-03-07T03:18:43.790Z,82.82
2023-03-07T03:21:12.481Z,82.84
2023-03-07T03:23:40.870Z,82.75
2023-03-07T03:26:11.726Z,82.62
2023-03-07T03:28:39.971Z,82.55
2023-03-07T03:31:10.972Z,82.53
2023-03-07T03:33:40.078Z,82.53
2023-03-07T03:36:11.387Z,82.56
2023-03-07T03:38:39.560Z,82.59
2023-03-07T03:41:11.903Z,82.58
2023-03-07T03:43:40.192Z,82.53
2023-03-07T03:46:08.428Z,82.47
2023-03-07T03:48:37.467Z,82.44
2023-03-07T03:51:08.527Z,82.37
2023-03-07T03:53:38.496Z,82.35
2023-03-07T03:56:11.879Z,82.34
2023-03-07T03:58:40.512Z,82.26
2023-03-07T04:01:10.830Z,82.17
2023-03-07T04:03:41.955Z,82.19
2023-03-07T04:06:14.268Z,82.24
2023-03-07T04:08:42.520Z,82.19
2023-03-07T04:11:10.778Z,82.07
2023-03-07T04:13:38.655Z,82.03
2023-03-07T04:16:06.681Z,81.97
2023-03-07T04:18:35.969Z,81.94
2023-03-07T04:21:06.034Z,81.89
2023-03-07T04:23:34.676Z,81.95
2023-03-07T04:26:04.595Z,82.03
2023-03-07T04:28:45.104Z,82.05
2023-03-07T04:31:30.171Z,82.03
2023-03-07T04:33:59.644Z,82.00
2023-03-07T04:36:27.522Z,81.94
2023-03-07T04:38:55.365Z,81.94
2023-03-07T04:41:26.532Z,81.97
2023-03-07T04:43:58.501Z,81.99
2023-03-07T04:46:26.953Z,82.04
2023-03-07T04:48:54.743Z,81.98
2023-03-07T04:51:23.461Z,82.02
2023-03-07T04:53:51.557Z,82.11
2023-03-07T04:56:19.485Z,81.97
2023-03-07T04:58:48.495Z,81.92
2023-03-07T05:01:18.609Z,82.00
2023-03-07T05:03:47.008Z,82.09
2023-03-07T05:06:16.707Z,82.17
2023-03-07T05:08:49.000Z,82.23
2023-03-07T05:11:17.262Z,82.24
2023-03-07T05:13:45.295Z,82.14
2023-03-07T05:16:17.722Z,82.00
2023-03-07T05:18:45.540Z,81.99
2023-03-07T05:21:13.478Z,82.20
2023-03-07T05:23:41.579Z,82.42
2023-03-07T05:26:10.786Z,82.44
2023-03-07T05:28:38.618Z,82.37
2023-03-07T05:31:06.866Z,82.25
2023-03-07T05:33:34.773Z,82.17
2023-03-07T05:36:03.941Z,82.15
2023-03-07T05:38:32.524Z,82.43
2023-03-07T05:41:00.360Z,82.49
2023-03-07T05:43:28.126Z,82.65
2023-03-07T05:45:55.966Z,82.66
2023-03-07T05:48:24.407Z,82.33
2023-03-07T05:50:52.126Z,82.22
2023-03-07T05:53:20.218Z,82.33
2023-03-07T05:55:48.226Z,82.36
2023-03-07T05:58:17.763Z,82.47
2023-03-07T06:00:47.230Z,82.48
2023-03-07T06:03:15.650Z,82.48
2023-03-07T06:05:43.472Z,82.38
2023-03-07T06:08:11.218Z,82.39
2023-03-07T06:10:40.274Z,82.46
2023-03-07T06:13:18.966Z,82.58
2023-03-07T06:15:50.002Z,82.86
2023-03-07T06:18:19.084Z,82.61
2023-03-07T06:21:02.043Z,82.29
2023-03-07T06:23:34.175Z,82.34
2023-03-07T06:26:04.248Z,82.33
2023-03-07T06:28:33.030Z,82.36
2023-03-07T06:31:11.680Z,82.47
2023-03-07T06:33:39.831Z,82.27
2023-03-07T06:36:09.571Z,82.00
2023-03-07T06:38:38.422Z,81.79
2023-03-07T06:41:06.597Z,81.76
2023-03-07T06:43:34.641Z,81.71
2023-03-07T06:46:03.148Z,81.53
2023-03-07T06:48:35.100Z,81.46
2023-03-07T06:51:08.711Z,81.58
2023-03-07T06:53:36.933Z,81.59
2023-03-07T06:56:05.169Z,81.73
2023-03-07T06:58:33.169Z,81.85
2023-03-07T07:01:00.883Z,81.98
2023-03-07T07:03:28.980Z,81.72
2023-03-07T07:05:56.777Z,81.50
2023-03-07T07:08:24.487Z,81.48
2023-03-07T07:10:52.259Z,81.31
2023-03-07T07:13:20.378Z,81.16
2023-03-07T07:15:48.174Z,81.15
2023-03-07T07:18:15.983Z,80.98
2023-03-07T07:20:43.823Z,80.69
2023-03-07T07:23:11.721Z,80.63
2023-03-07T07:25:39.627Z,80.62
2023-03-07T07:28:07.391Z,80.48
2023-03-07T07:30:35.059Z,80.39
2023-03-07T07:33:03.020Z,80.39
2023-03-07T07:35:30.895Z,80.37
2023-03-07T07:37:58.985Z,80.23
2023-03-07T07:40:27.624Z,80.00
2023-03-07T07:42:55.349Z,80.04
2023-03-07T07:45:37.572Z,79.69
2023-03-07T07:48:06.031Z,79.39
2023-03-07T07:50:33.720Z,78.66
2023-03-07T07:53:01.505Z,78.48
2023-03-07T07:55:29.682Z,78.70
2023-03-07T07:57:57.473Z,78.84
2023-03-07T08:00:25.636Z,78.87
2023-03-07T08:02:53.371Z,78.87
2023-03-07T08:05:21.801Z,78.88
2023-03-07T08:07:50.411Z,78.93
2023-03-07T08:10:19.004Z,78.98
2023-03-07T08:12:51.534Z,79.15
2023-03-07T08:15:21.463Z,79.18
2023-03-07T08:17:51.302Z,79.05
2023-03-07T08:20:22.381Z,78.55
2023-03-07T08:22:50.801Z,77.65
2023-03-07T08:25:22.462Z,77.37
2023-03-07T08:27:55.319Z,77.34
2023-03-07T08:30:25.026Z,76.58
2023-03-07T08:32:54.718Z,75.67
2023-03-07T08:35:23.148Z,75.07
2023-03-07T08:37:55.061Z,74.71
2023-03-07T08:40:24.903Z,74.30
2023-03-07T08:42:55.051Z,74.24
2023-03-07T08:45:24.405Z,73.64
2023-03-07T08:47:56.367Z,73.56
2023-03-07T08:50:29.932Z,73.01
2023-03-07T08:52:57.787Z,72.70
2023-03-07T08:55:25.569Z,72.59
2023-03-07T08:57:53.239Z,72.71
2023-03-07T09:00:21.181Z,72.73
2023-03-07T09:02:48.991Z,72.91
2023-03-07T09:05:16.888Z,72.45
2023-03-07T09:07:44.630Z,72.01
2023-03-07T09:10:12.363Z,72.16
2023-03-07T09:12:40.063Z,71.80
2023-03-07T09:15:08.892Z,71.70
2023-03-07T09:17:36.761Z,71.61
2023-03-07T09:20:06.149Z,71.70
2023-03-07T09:22:33.840Z,71.39
2023-03-07T09:25:02.369Z,70.56
2023-03-07T09:27:30.136Z,70.55
2023-03-07T09:29:57.837Z,70.27
2023-03-07T09:32:25.633Z,70.52
2023-03-07T09:34:53.612Z,70.25
2023-03-07T09:37:21.271Z,70.24
2023-03-07T09:39:50.377Z,70.47
2023-03-07T09:42:43.902Z,70.81
2023-03-07T09:45:43.292Z,70.66
2023-03-07T09:49:04.373Z,70.66
2023-03-07T09:51:45.470Z,70.36
2023-03-07T09:54:20.453Z,70.09
2023-03-07T09:56:55.877Z,69.99
2023-03-07T10:00:01.180Z,69.96
2023-03-07T10:02:39.780Z,70.19
2023-03-07T10:05:28.910Z,70.52
2023-03-07T10:07:56.979Z,71.09
2023-03-07T10:10:33.041Z,71.70
2023-03-07T10:13:28.493Z,72.16
2023-03-07T10:16:01.204Z,72.53
2023-03-07T10:18:54.271Z,72.80
2023-03-07T10:21:22.369Z,73.01
2023-03-07T10:24:03.657Z,73.29
2023-03-07T10:26:44.244Z,73.54
2023-03-07T10:29:18.685Z,73.86
2023-03-07T10:31:51.105Z,74.00
2023-03-07T10:34:30.731Z,74.02
2023-03-07T10:37:10.417Z,74.01
2023-03-07T10:39:54.221Z,74.03
2023-03-07T10:42:24.773Z,73.97
2023-03-07T10:44:52.497Z,73.82
2023-03-07T10:47:28.875Z,73.24
2023-03-07T10:50:14.147Z,72.79
2023-03-07T10:52:53.610Z,72.28
2023-03-07T10:55:46.627Z,71.11
2023-03-07T10:58:15.682Z,70.69
2023-03-07T11:00:44.664Z,70.76
2023-03-07T11:03:53.464Z,70.27
2023-03-07T11:06:34.467Z,70.35
2023-03-07T11:09:21.035Z,70.66
2023-03-07T11:11:58.674Z,70.37
2023-03-07T11:14:29.014Z,70.96
2023-03-07T11:17:02.196Z,70.93
2023-03-07T11:19:42.098Z,70.60
2023-03-07T11:22:27.034Z,70.24
2023-03-07T11:24:59.952Z,69.45
2023-03-07T11:27:36.154Z,69.31
2023-03-07T11:30:35.621Z,67.45
2023-03-07T11:33:08.431Z,65.89
2023-03-07T11:36:15.521Z,63.20
2023-03-07T11:39:11.262Z,63.16
2023-03-07T11:41:42.484Z,61.93
2023-03-07T11:44:22.435Z,60.56
2023-03-07T11:47:15.355Z,58.79
2023-03-07T11:50:26.848Z,57.43
2023-03-07T11:53:09.887Z,59.22
2023-03-07T11:55:56.335Z,59.89
2023-03-07T11:58:24.020Z,60.75
2023-03-07T12:01:07.001Z,61.45
2023-03-07T12:04:13.631Z,62.10
2023-03-07T12:07:08.097Z,62.78
2023-03-07T12:09:35.956Z,63.11
2023-03-07T12:12:44.285Z,62.05
2023-03-07T12:15:35.715Z,61.62
2023-03-07T12:18:29.009Z,61.32
2023-03-07T12:21:24.504Z,59.49
2023-03-07T12:24:02.028Z,58.77
2023-03-07T12:26:59.122Z,58.56
2023-03-07T12:29:36.665Z,59.44
2023-03-07T12:32:11.063Z,59.88
2023-03-07T12:34:48.020Z,60.24
2023-03-07T12:37:24.857Z,60.42
2023-03-07T12:39:55.951Z,60.68
2023-03-07T12:42:44.862Z,60.82
2023-03-07T12:45:16.446Z,61.58
2023-03-07T12:48:17.963Z,61.75
2023-03-07T12:51:11.323Z,62.11
2023-03-07T12:53:46.470Z,62.38
2023-03-07T12:56:27.233Z,62.42
2023-03-07T12:59:10.041Z,62.69
2023-03-07T13:01:53.909Z,62.68
2023-03-07T13:04:30.212Z,62.97
2023-03-07T13:07:08.463Z,63.14
2023-03-07T13:09:40.293Z,63.28
2023-03-07T13:12:16.138Z,63.62
2023-03-07T13:14:45.124Z,63.78
2023-03-07T13:17:36.155Z,63.96
2023-03-07T13:20:16.469Z,64.07
2023-03-07T13:22:44.117Z,64.03
2023-03-07T13:25:25.381Z,64.02
2023-03-07T13:27:57.039Z,64.28
2023-03-07T13:30:32.784Z,64.63
2023-03-07T13:33:00.718Z,64.52
2023-03-07T13:35:31.377Z,64.59
2023-03-07T13:38:03.577Z,64.39
2023-03-07T13:41:00.466Z,64.48
2023-03-07T13:43:28.578Z,64.13
2023-03-07T13:45:59.303Z,64.25
2023-03-07T13:48:27.066Z,64.44
2023-03-07T13:50:54.721Z,64.70
2023-03-07T13:53:36.400Z,64.72
2023-03-07T13:56:10.046Z,64.61
2023-03-07T13:58:44.788Z,64.64
2023-03-07T14:01:17.251Z,64.67
2023-03-07T14:03:50.027Z,64.61
2023-03-07T14:06:31.030Z,64.65
2023-03-07T14:09:02.541Z,64.56
2023-03-07T14:11:33.707Z,64.58
2023-03-07T14:14:27.795Z,64.20
2023-03-07T14:17:20.374Z,63.96
2023-03-07T14:20:01.438Z,64.21
2023-03-07T14:22:32.237Z,64.03
2023-03-07T14:25:02.931Z,63.66
2023-03-07T14:27:31.656Z,63.40
2023-03-07T14:29:59.438Z,63.56
2023-03-07T14:32:29.952Z,63.42
2023-03-07T14:34:58.409Z,63.40
2023-03-07T14:37:31.108Z,63.22
2023-03-07T14:39:58.764Z,62.96
2023-03-07T14:42:44.728Z,62.92
2023-03-07T14:45:49.746Z,62.79
2023-03-07T14:48:58.377Z,62.68
2023-03-07T14:51:29.265Z,62.74
2023-03-07T14:53:58.293Z,62.42
2023-03-07T14:56:32.389Z,62.48
2023-03-07T14:59:02.949Z,62.77
2023-03-07T15:01:35.053Z,62.59
2023-03-07T15:04:08.304Z,62.29
2023-03-07T15:06:43.454Z,62.63
2023-03-07T15:09:11.690Z,62.66
2023-03-07T15:11:43.730Z,62.64
2023-03-07T15:14:21.642Z,62.51
2023-03-07T15:17:01.532Z,62.56
2023-03-07T15:19:39.208Z,62.47
2023-03-07T15:22:39.268Z,62.38
2023-03-07T15:25:24.515Z,62.57
2023-03-07T15:28:04.527Z,62.61
2023-03-07T15:30:35.674Z,62.54
2023-03-07T15:33:18.599Z,62.45
2023-03-07T15:36:05.347Z,62.48
2023-03-07T15:38:34.350Z,62.53
2023-03-07T15:41:02.075Z,62.60
2023-03-07T15:43:35.044Z,62.50
2023-03-07T15:46:06.748Z,62.49
2023-03-07T15:48:49.539Z,62.38
2023-03-07T15:51:20.554Z,62.39
2023-03-07T15:54:00.677Z,62.47
2023-03-07T15:56:36.311Z,62.25
2023-03-07T15:59:09.957Z,62.13
2023-03-07T16:01:37.653Z,62.00
2023-03-07T16:04:05.585Z,62.00
2023-03-07T16:06:41.207Z,62.29
2023-03-07T16:09:13.042Z,62.32
2023-03-07T16:11:41.583Z,62.42
2023-03-07T16:14:28.764Z,62.58
2023-03-07T16:17:00.076Z,62.82
2023-03-07T16:19:28.566Z,62.81
2023-03-07T16:21:56.261Z,62.96
2023-03-07T16:24:23.999Z,62.98
2023-03-07T16:26:51.749Z,62.95
2023-03-07T16:29:23.372Z,63.14
2023-03-07T16:31:51.276Z,63.08
2023-03-07T16:34:21.326Z,63.15
2023-03-07T16:36:49.119Z,63.20
2023-03-07T16:39:18.344Z,63.29
2023-03-07T16:41:48.331Z,63.39
2023-03-07T16:44:18.494Z,63.31
2023-03-07T16:46:52.829Z,63.33
2023-03-07T16:49:21.030Z,63.40
2023-03-07T16:52:04.513Z,63.46
2023-03-07T16:54:34.364Z,63.60
2023-03-07T16:57:02.891Z,63.64
2023-03-07T16:59:37.155Z,63.65
2023-03-07T17:02:19.716Z,63.76
2023-03-07T17:04:48.431Z,63.84
2023-03-07T17:07:22.078Z,63.84
2023-03-07T17:09:50.304Z,63.91
2023-03-07T17:12:22.548Z,63.89
2023-03-07T17:14:50.660Z,63.93
2023-03-07T17:17:25.157Z,64.03
2023-03-07T17:19:52.972Z,64.07
2023-03-07T17:22:20.715Z,64.12
2023-03-07T17:24:48.413Z,64.20
2023-03-07T17:27:16.990Z,64.22
2023-03-07T17:29:49.839Z,64.29
2023-03-07T17:32:18.176Z,64.27
2023-03-07T17:34:45.954Z,64.38
2023-03-07T17:37:16.119Z,64.39
2023-03-07T17:39:45.744Z,64.40
2023-03-07T17:42:13.574Z,64.46
2023-03-07T17:44:41.617Z,64.42
2023-03-07T17:47:09.386Z,64.48
2023-03-07T17:49:38.921Z,64.40
2023-03-07T17:52:07.596Z,64.49
2023-03-07T17:54:35.550Z,64.48
2023-03-07T17:57:03.490Z,64.48
2023-03-07T17:59:32.981Z,64.51
2023-03-07T18:02:00.894Z,64.53
2023-03-07T18:04:31.268Z,64.52
2023-03-07T18:07:00.133Z,64.44
2023-03-07T18:09:27.859Z,64.53
2023-03-07T18:11:55.576Z,64.56
2023-03-07T18:14:23.358Z,64.61
2023-03-07T18:16:51.626Z,64.57
2023-03-07T18:19:26.213Z,64.56
2023-03-07T18:21:55.491Z,64.52
2023-03-07T18:24:29.774Z,64.47
2023-03-07T18:27:05.575Z,64.45
2023-03-07T18:29:33.242Z,64.49
2023-03-07T18:32:01.326Z,64.52
2023-03-07T18:34:29.046Z,64.53
2023-03-07T18:36:56.923Z,64.45
2023-03-07T18:39:24.662Z,64.44
2023-03-07T18:41:52.403Z,64.43
2023-03-07T18:44:20.539Z,64.44
2023-03-07T18:46:48.463Z,64.49
2023-03-07T18:49:16.342Z,64.56
2023-03-07T18:51:46.066Z,64.67
2023-03-07T18:54:14.195Z,64.72
2023-03-07T18:56:45.250Z,64.79
2023-03-07T18:59:12.994Z,64.81
2023-03-07T19:01:40.949Z,64.88
2023-03-07T19:04:09.143Z,64.94
2023-03-07T19:06:41.717Z,65.08
2023-03-07T19:09:19.529Z,65.19
2023-03-07T19:11:47.852Z,65.35
2023-03-07T19:14:15.740Z,65.53
2023-03-07T19:16:43.995Z,65.69
2023-03-07T19:19:11.760Z,65.90
2023-03-07T19:21:39.512Z,66.09
2023-03-07T19:24:08.043Z,66.23
2023-03-07T19:26:35.783Z,66.47
2023-03-07T19:29:04.165Z,66.76
2023-03-07T19:31:32.908Z,66.86
2023-03-07T19:34:03.319Z,67.03
2023-03-07T19:36:33.898Z,67.10
2023-03-07T19:39:02.191Z,67.15
2023-03-07T19:41:31.495Z,67.28
2023-03-07T19:44:00.387Z,67.36
2023-03-07T19:46:28.562Z,67.45
2023-03-07T19:48:56.308Z,67.53
2023-03-07T19:51:26.116Z,67.52
2023-03-07T19:53:57.110Z,67.49
2023-03-07T19:56:31.793Z,67.47
2023-03-07T19:59:01.892Z,67.43
2023-03-07T20:01:30.232Z,67.34
2023-03-07T20:03:58.332Z,67.27
2023-03-07T20:06:29.646Z,67.26
2023-03-07T20:08:58.560Z,67.19
2023-03-07T20:11:29.302Z,67.24
2023-03-07T20:14:00.094Z,67.27
2023-03-07T20:16:29.497Z,67.48
2023-03-07T20:18:59.597Z,67.75
2023-03-07T20:21:28.796Z,67.85
2023-03-07T20:24:00.304Z,68.16
2023-03-07T20:26:33.981Z,68.30
2023-03-07T20:29:03.988Z,68.46
2023-03-07T20:31:32.528Z,68.65
2023-03-07T20:34:00.791Z,68.82
2023-03-07T20:36:34.527Z,69.03
2023-03-07T20:39:07.665Z,69.08
2023-03-07T20:41:35.641Z,69.20
2023-03-07T20:44:06.021Z,69.47
2023-03-07T20:46:35.380Z,69.96
2023-03-07T20:49:03.679Z,70.31
2023-03-07T20:51:34.101Z,70.67
2023-03-07T20:54:16.699Z,70.98
2023-03-07T20:56:46.503Z,71.39
2023-03-07T20:59:18.972Z,71.64
2023-03-07T21:01:47.040Z,71.93
2023-03-07T21:04:17.621Z,72.15
2023-03-07T21:06:46.294Z,72.21
2023-03-07T21:09:16.256Z,72.35
2023-03-07T21:11:47.056Z,72.81
2023-03-07T21:14:17.293Z,73.05
2023-03-07T21:16:45.160Z,73.12
2023-03-07T21:19:14.904Z,73.29
2023-03-07T21:21:43.476Z,73.47
2023-03-07T21:24:15.658Z,73.74
2023-03-07T21:26:43.614Z,73.86
2023-03-07T21:29:13.284Z,73.93
2023-03-07T21:31:41.007Z,74.06
2023-03-07T21:34:13.341Z,74.05
2023-03-07T21:36:41.246Z,74.13
2023-03-07T21:39:09.943Z,74.34
2023-03-07T21:41:37.816Z,74.49
2023-03-07T21:44:06.113Z,74.48
2023-03-07T21:46:33.955Z,74.56
2023-03-07T21:49:01.739Z,74.64
2023-03-07T21:51:29.491Z,74.75
2023-03-07T21:53:57.246Z,74.81
2023-03-07T21:56:25.192Z,74.96
2023-03-07T21:58:53.267Z,75.04
2023-03-07T22:01:24.456Z,75.17
2023-03-07T22:03:53.944Z,75.25
2023-03-07T22:06:22.445Z,75.26
2023-03-07T22:08:50.142Z,75.35
2023-03-07T22:11:17.943Z,75.40
2023-03-07T22:13:45.695Z,75.54
2023-03-07T22:16:16.175Z,75.67
2023-03-07T22:18:43.988Z,75.76
2023-03-07T22:21:14.062Z,75.88
2023-03-07T22:23:42.581Z,76.18
2023-03-07T22:26:11.703Z,76.94
2023-03-07T22:28:41.066Z,76.88
2023-03-07T22:31:12.060Z,76.63
2023-03-07T22:33:41.180Z,76.65
2023-03-07T22:36:12.394Z,76.79
2023-03-07T22:38:41.918Z,77.02
2023-03-07T22:41:11.218Z,77.16
2023-03-07T22:43:39.139Z,77.33
2023-03-07T22:46:08.062Z,77.83
2023-03-07T22:48:36.243Z,78.06
2023-03-07T22:51:04.488Z,78.48
2023-03-07T22:53:33.461Z,78.95
2023-03-07T22:56:01.561Z,79.42
2023-03-07T22:58:29.943Z,79.82
2023-03-07T23:00:57.655Z,79.73
2023-03-07T23:03:25.465Z,79.86
2023-03-07T23:05:53.147Z,80.02
2023-03-07T23:08:20.885Z,80.33
2023-03-07T23:10:48.533Z,80.44
2023-03-07T23:13:17.275Z,80.87
2023-03-07T23:15:45.417Z,81.00
2023-03-07T23:18:13.198Z,81.18
2023-03-07T23:20:41.411Z,81.42
2023-03-07T23:23:09.270Z,80.97
2023-03-07T23:25:42.119Z,81.03
2023-03-07T23:28:10.432Z,80.87
2023-03-07T23:30:39.690Z,81.18
2023-03-07T23:33:08.017Z,81.70
2023-03-07T23:35:36.243Z,81.80
2023-03-07T23:38:05.030Z,81.94
2023-03-07T23:40:37.223Z,82.10
2023-03-07T23:43:05.411Z,82.04
2023-03-07T23:45:33.186Z,81.90
2023-03-07T23:48:01.007Z,81.78
2023-03-07T23:50:28.699Z,81.70
2023-03-07T23:52:56.424Z,81.80
2023-03-07T23:55:24.169Z,82.10
2023-03-07T23:57:51.985Z,82.38
